createdAt,value
2022-09-01T00:15:04.206Z,606
2022-09-01T00:35:04.235Z,606
2022-09-01T00:55:04.281Z,605
2022-09-01T01:15:04.332Z,612
2022-09-01T01:35:04.371Z,613
2022-09-01T03:15:04.593Z,608
2022-09-01T03:35:04.630Z,606
2022-09-01T05:35:04.906Z,613
2022-09-01T05:55:12.943Z,615
2022-09-01T06:35:13.148Z,612
2022-09-01T06:55:07.764Z,623
2022-09-01T07:35:05.207Z,637
2022-09-01T07:55:05.223Z,630
2022-09-01T08:15:37.896Z,628
2022-09-01T08:35:05.301Z,626
2022-09-01T08:55:05.354Z,625
2022-09-01T09:15:05.404Z,626
2022-09-01T09:35:05.434Z,624
2022-09-01T09:55:05.497Z,620
2022-09-01T10:15:07.058Z,623
2022-09-01T10:35:13.593Z,624
2022-09-01T10:55:13.707Z,623
2022-09-01T11:55:13.719Z,619
2022-09-01T12:55:46.965Z,607
2022-09-01T13:15:05.888Z,607
2022-09-01T13:35:05.940Z,611
2022-09-01T15:15:06.091Z,610
2022-09-01T15:55:06.186Z,607
2022-09-01T16:15:06.216Z,603
2022-09-01T17:15:06.341Z,618
2022-09-01T17:35:22.380Z,612
2022-09-01T17:55:14.441Z,612
2022-09-01T18:15:06.459Z,610
2022-09-01T18:35:06.504Z,611
2022-09-01T18:55:06.526Z,610
2022-09-01T19:15:07.572Z,604
2022-09-01T19:55:06.693Z,612
2022-09-01T20:15:14.721Z,621
2022-09-01T20:35:06.761Z,613
2022-09-01T21:15:14.847Z,612
2022-09-01T21:55:15.960Z,612
2022-09-01T22:35:07.057Z,607
2022-09-01T22:55:07.063Z,610
2022-09-01T23:15:23.109Z,621
2022-09-01T23:35:07.147Z,616
2022-09-01T23:55:15.198Z,612
